Time;durP1;ratioP1;P1;durP2;ratioP2;P2;SDS_P1;SDS_P2;PMS_P1;PMS_P2;Temp;Humidity;BMP_temperature;BMP_pressure;BME280_temperature;BME280_humidity;BME280_pressure;Samples;Min_cycle;Max_cycle;Signal;HPM_P1;HPM_P2
2021/09/19 00:00:42;;;;;;;;;;;19.00;99.90;;;;;;5070709;28;19919;-51
2021/09/19 00:03:46;;;;;;;;;;;18.90;99.90;;;;;;5060057;28;19924;-56
2021/09/19 00:06:50;;;;;;;;;;;18.90;99.90;;;;;;5071902;28;19939;-54
2021/09/19 00:09:55;;;;;;;;;;;18.90;99.90;;;;;;5070640;28;19920;-51
2021/09/19 00:12:59;;;;;;;;;;;18.90;99.90;;;;;;5071848;28;19940;-55
2021/09/19 00:16:03;;;;;;;;;;;18.90;99.90;;;;;;5071885;28;19920;-57
2021/09/19 00:19:08;;;;;;;;;;;18.90;99.90;;;;;;5070463;28;19923;-55
2021/09/19 00:22:11;;;;;;;;;;;18.90;99.90;;;;;;5071727;28;19919;-58
2021/09/19 00:25:15;;;;;;;;;;;18.90;99.90;;;;;;5072062;28;19919;-55
2021/09/19 00:28:19;;;;;;;;;;;18.90;99.90;;;;;;5071098;28;20091;-57
2021/09/19 00:31:24;;;;;;;;;;;19.00;99.90;;;;;;5071037;28;19919;-56
2021/09/19 00:34:28;;;;;;;;;;;18.90;99.90;;;;;;5071835;28;19964;-54
2021/09/19 00:37:32;;;;;;;;;;;18.70;99.90;;;;;;5071002;28;19920;-52
2021/09/19 00:40:36;;;;;;;;;;;18.60;99.90;;;;;;5070853;28;20291;-52
2021/09/19 00:43:40;;;;;;;;;;;18.60;99.90;;;;;;5072114;28;19919;-52
2021/09/19 00:46:44;;;;;;;;;;;18.60;99.90;;;;;;5071056;28;19919;-54
2021/09/19 00:49:48;;;;;;;;;;;18.60;99.90;;;;;;5070690;28;20303;-54
2021/09/19 00:52:52;;;;;;;;;;;18.60;99.90;;;;;;5071767;28;20296;-53
2021/09/19 00:55:57;;;;;;;;;;;18.70;99.90;;;;;;5071412;28;19939;-55
2021/09/19 00:59:01;;;;;;;;;;;18.50;99.90;;;;;;5070440;28;19919;-58
2021/09/19 01:02:06;;;;;;;;;;;18.30;99.90;;;;;;5071468;28;19923;-53
2021/09/19 01:05:12;;;;;;;;;;;18.30;99.90;;;;;;5070649;28;20038;-57
2021/09/19 01:08:16;;;;;;;;;;;18.30;99.90;;;;;;5070240;28;19924;-52
2021/09/19 01:11:20;;;;;;;;;;;18.30;99.90;;;;;;5070037;28;19924;-57
2021/09/19 01:14:24;;;;;;;;;;;18.30;99.90;;;;;;5071117;28;20298;-53
2021/09/19 01:17:28;;;;;;;;;;;18.20;99.90;;;;;;5069790;28;19922;-55
2021/09/19 01:20:33;;;;;;;;;;;18.20;99.90;;;;;;5070364;28;19943;-52
2021/09/19 01:23:37;;;;;;;;;;;18.30;99.90;;;;;;5070696;28;19935;-54
2021/09/19 01:26:41;;;;;;;;;;;18.30;99.90;;;;;;5069826;28;19991;-52
2021/09/19 01:29:45;;;;;;;;;;;18.30;99.90;;;;;;5055809;28;19987;-59
2021/09/19 01:32:49;;;;;;;;;;;18.20;99.90;;;;;;5070940;28;20386;-52
2021/09/19 01:35:55;;;;;;;;;;;18.10;99.90;;;;;;5069680;28;19939;-53
2021/09/19 01:38:59;;;;;;;;;;;18.00;99.90;;;;;;5069263;28;19943;-55
2021/09/19 01:42:03;;;;;;;;;;;18.00;99.90;;;;;;5069534;28;20390;-52
2021/09/19 01:45:08;;;;;;;;;;;18.10;99.90;;;;;;5069836;28;19919;-54
2021/09/19 01:48:12;;;;;;;;;;;18.10;99.90;;;;;;5069118;28;20025;-53
2021/09/19 01:51:16;;;;;;;;;;;18.10;99.90;;;;;;5069810;28;19920;-52
2021/09/19 01:54:20;;;;;;;;;;;18.10;99.90;;;;;;5069486;28;19943;-55
2021/09/19 01:57:24;;;;;;;;;;;18.00;99.90;;;;;;5069098;28;19939;-58
2021/09/19 02:00:28;;;;;;;;;;;17.90;99.90;;;;;;5069863;28;19920;-56
2021/09/19 02:03:32;;;;;;;;;;;18.00;99.90;;;;;;5069604;28;20401;-52
2021/09/19 02:06:37;;;;;;;;;;;18.00;99.90;;;;;;5069155;28;20310;-54
2021/09/19 02:09:41;;;;;;;;;;;17.90;99.90;;;;;;5069341;28;19920;-57
2021/09/19 02:12:45;;;;;;;;;;;17.80;99.90;;;;;;5069546;28;19987;-55
2021/09/19 02:15:49;;;;;;;;;;;17.80;99.90;;;;;;5068524;28;19923;-54
2021/09/19 02:18:53;;;;;;;;;;;17.80;99.90;;;;;;5069532;28;19920;-53
2021/09/19 02:21:57;;;;;;;;;;;17.80;99.90;;;;;;5069404;28;19923;-56
2021/09/19 02:25:01;;;;;;;;;;;17.60;99.90;;;;;;5068567;28;19923;-52
2021/09/19 02:28:05;;;;;;;;;;;17.70;99.90;;;;;;5068667;28;20295;-52
2021/09/19 02:31:09;;;;;;;;;;;17.60;99.90;;;;;;5057075;28;19919;-53
2021/09/19 02:34:13;;;;;;;;;;;17.60;99.90;;;;;;5068497;28;19923;-53
2021/09/19 02:37:17;;;;;;;;;;;17.50;99.90;;;;;;5056270;28;20311;-51
2021/09/19 02:40:21;;;;;;;;;;;17.50;99.90;;;;;;5068799;28;20298;-52
2021/09/19 02:43:25;;;;;;;;;;;17.50;99.90;;;;;;5068481;28;20425;-52
2021/09/19 02:46:29;;;;;;;;;;;17.60;99.90;;;;;;5067856;28;19919;-55
2021/09/19 02:49:32;;;;;;;;;;;17.60;99.90;;;;;;5058571;28;19909;-55
2021/09/19 02:52:36;;;;;;;;;;;17.60;99.90;;;;;;5068579;28;19924;-53
2021/09/19 02:55:41;;;;;;;;;;;17.60;99.90;;;;;;5058532;28;20381;-55
2021/09/19 02:58:44;;;;;;;;;;;17.70;99.90;;;;;;5053612;28;19935;-53
2021/09/19 03:01:48;;;;;;;;;;;17.70;99.90;;;;;;5072962;28;19920;-53
2021/09/19 03:04:52;;;;;;;;;;;17.70;99.90;;;;;;5072450;28;19920;-53
2021/09/19 03:07:56;;;;;;;;;;;17.70;99.90;;;;;;5072730;28;19919;-56
2021/09/19 03:11:00;;;;;;;;;;;17.70;99.90;;;;;;5073299;28;19920;-52
2021/09/19 03:14:04;;;;;;;;;;;17.80;99.90;;;;;;5072182;28;19923;-52
2021/09/19 03:17:08;;;;;;;;;;;17.80;99.90;;;;;;5073035;28;19920;-56
2021/09/19 03:20:13;;;;;;;;;;;17.80;99.90;;;;;;5073789;28;19920;-52
2021/09/19 03:23:17;;;;;;;;;;;17.70;99.90;;;;;;5072397;28;19927;-51
2021/09/19 03:26:21;;;;;;;;;;;17.60;99.90;;;;;;5072356;28;19919;-52
2021/09/19 03:29:26;;;;;;;;;;;17.60;99.90;;;;;;5073304;28;20326;-56
2021/09/19 03:32:30;;;;;;;;;;;17.40;99.90;;;;;;5071824;28;19919;-54
2021/09/19 03:35:33;;;;;;;;;;;17.30;99.90;;;;;;5072095;28;20421;-59
2021/09/19 03:38:37;;;;;;;;;;;17.20;99.90;;;;;;5072994;28;19924;-54
2021/09/19 03:41:42;;;;;;;;;;;17.10;99.90;;;;;;5071617;28;19919;-54
2021/09/19 03:44:47;;;;;;;;;;;17.00;99.90;;;;;;5071600;28;19920;-52
2021/09/19 03:47:51;;;;;;;;;;;16.90;99.90;;;;;;5072700;28;19924;-52
2021/09/19 03:50:55;;;;;;;;;;;16.80;99.90;;;;;;5071843;28;20314;-52
2021/09/19 03:53:59;;;;;;;;;;;16.50;99.90;;;;;;5071077;28;20405;-52
2021/09/19 03:57:02;;;;;;;;;;;16.40;99.90;;;;;;5071975;28;19924;-55
2021/09/19 04:00:07;;;;;;;;;;;16.40;99.90;;;;;;5072594;28;19940;-56
2021/09/19 04:03:16;;;;;;;;;;;16.30;99.90;;;;;;5070912;28;19916;-53
2021/09/19 04:06:20;;;;;;;;;;;16.40;99.90;;;;;;5071206;28;19943;-53
2021/09/19 04:09:24;;;;;;;;;;;16.40;99.90;;;;;;5072269;28;20295;-54
2021/09/19 04:12:28;;;;;;;;;;;16.40;99.90;;;;;;5070146;28;20307;-52
2021/09/19 04:15:32;;;;;;;;;;;16.20;99.90;;;;;;5070925;28;19927;-54
2021/09/19 04:18:36;;;;;;;;;;;16.10;99.90;;;;;;5071879;28;20298;-54
2021/09/19 04:21:40;;;;;;;;;;;16.00;99.90;;;;;;5070618;28;19920;-55
2021/09/19 04:24:44;;;;;;;;;;;16.00;99.90;;;;;;5070800;28;19939;-52
2021/09/19 04:27:48;;;;;;;;;;;15.90;99.90;;;;;;5071975;28;20303;-57
2021/09/19 04:30:52;;;;;;;;;;;16.00;99.90;;;;;;5066919;28;19923;-55
2021/09/19 04:33:56;;;;;;;;;;;16.00;99.90;;;;;;5070042;28;20403;-57
2021/09/19 04:37:00;;;;;;;;;;;16.00;99.90;;;;;;5071570;28;19920;-54
2021/09/19 04:40:05;;;;;;;;;;;16.00;99.90;;;;;;5070876;28;19916;-56
2021/09/19 04:43:13;;;;;;;;;;;16.00;99.90;;;;;;5070151;28;19919;-52
2021/09/19 04:46:17;;;;;;;;;;;16.00;99.90;;;;;;5071897;28;20413;-55
2021/09/19 04:49:21;;;;;;;;;;;16.00;99.90;;;;;;5071147;28;19919;-55
2021/09/19 04:52:25;;;;;;;;;;;15.90;99.90;;;;;;5070412;28;20290;-59
2021/09/19 04:55:29;;;;;;;;;;;15.50;99.90;;;;;;5070823;28;20397;-52
2021/09/19 04:58:33;;;;;;;;;;;15.30;99.90;;;;;;5071326;28;19919;-52
2021/09/19 05:01:37;;;;;;;;;;;15.30;99.90;;;;;;5069919;28;19919;-55
2021/09/19 05:04:41;;;;;;;;;;;15.30;99.90;;;;;;5070091;28;19919;-53
2021/09/19 05:07:46;;;;;;;;;;;15.40;99.90;;;;;;5071246;28;20398;-52
2021/09/19 05:10:50;;;;;;;;;;;15.40;99.90;;;;;;5069453;28;19927;-55
2021/09/19 05:13:54;;;;;;;;;;;15.50;99.90;;;;;;5069390;28;20319;-56
2021/09/19 05:16:58;;;;;;;;;;;15.60;99.90;;;;;;5070164;28;19935;-55
2021/09/19 05:20:02;;;;;;;;;;;15.60;99.90;;;;;;5069646;28;19939;-52
2021/09/19 05:23:06;;;;;;;;;;;15.80;99.90;;;;;;5069048;28;19923;-54
2021/09/19 05:26:10;;;;;;;;;;;15.90;99.90;;;;;;5070960;28;19920;-52
2021/09/19 05:29:14;;;;;;;;;;;16.30;99.90;;;;;;5070126;28;19923;-57
2021/09/19 05:32:18;;;;;;;;;;;16.60;99.90;;;;;;5069043;28;19920;-55
2021/09/19 05:35:22;;;;;;;;;;;16.90;99.90;;;;;;5070113;28;20010;-52
2021/09/19 05:38:26;;;;;;;;;;;16.80;99.90;;;;;;5069815;28;19923;-55
2021/09/19 05:41:31;;;;;;;;;;;17.00;99.90;;;;;;5068720;28;19920;-52
2021/09/19 05:44:35;;;;;;;;;;;17.30;99.90;;;;;;5069542;28;19935;-52
2021/09/19 05:47:39;;;;;;;;;;;17.50;99.90;;;;;;5070275;28;19924;-52
2021/09/19 05:50:43;;;;;;;;;;;17.80;99.90;;;;;;5069391;28;20020;-57
2021/09/19 05:53:47;;;;;;;;;;;18.20;99.90;;;;;;5069500;28;19920;-52
2021/09/19 05:56:52;;;;;;;;;;;18.40;99.90;;;;;;5070712;28;20302;-52
2021/09/19 05:59:56;;;;;;;;;;;17.50;99.90;;;;;;5069128;28;19920;-56
2021/09/19 06:03:00;;;;;;;;;;;17.20;99.90;;;;;;5069079;28;20314;-57
2021/09/19 06:06:04;;;;;;;;;;;17.30;99.90;;;;;;5070453;28;19923;-52
2021/09/19 06:09:08;;;;;;;;;;;17.40;99.90;;;;;;5068909;28;19919;-52
2021/09/19 06:12:12;;;;;;;;;;;17.50;99.90;;;;;;5068954;28;19920;-53
2021/09/19 06:15:16;;;;;;;;;;;17.70;99.90;;;;;;5069616;28;20131;-54
2021/09/19 06:18:20;;;;;;;;;;;18.10;99.90;;;;;;5069235;28;19923;-53
2021/09/19 06:21:24;;;;;;;;;;;18.20;99.90;;;;;;5068587;28;20291;-53
2021/09/19 06:24:29;;;;;;;;;;;18.10;99.90;;;;;;5069416;28;19923;-52
2021/09/19 06:27:33;;;;;;;;;;;17.90;99.90;;;;;;5069117;28;19923;-52
2021/09/19 06:30:36;;;;;;;;;;;18.30;99.90;;;;;;5068555;28;19916;-52
2021/09/19 06:33:41;;;;;;;;;;;18.70;99.90;;;;;;5069713;28;19932;-55
2021/09/19 06:36:45;;;;;;;;;;;20.00;99.90;;;;;;5069337;28;19923;-53
2021/09/19 06:39:49;;;;;;;;;;;22.40;99.90;;;;;;5068247;28;19920;-52
2021/09/19 06:42:52;;;;;;;;;;;23.90;99.90;;;;;;5069193;28;19924;-54
2021/09/19 06:45:56;;;;;;;;;;;24.00;99.90;;;;;;5056669;28;19923;-52
2021/09/19 06:49:01;;;;;;;;;;;22.80;99.90;;;;;;5068582;28;19923;-58
2021/09/19 06:52:05;;;;;;;;;;;22.50;99.90;;;;;;5069126;28;19927;-53
2021/09/19 06:55:09;;;;;;;;;;;21.80;99.90;;;;;;5069085;28;19923;-54
2021/09/19 06:58:13;;;;;;;;;;;22.80;99.90;;;;;;5065383;28;19919;-53
2021/09/19 07:01:17;;;;;;;;;;;22.80;99.90;;;;;;5068264;28;19924;-54
2021/09/19 07:04:22;;;;;;;;;;;22.30;99.90;;;;;;5069172;28;20369;-53
2021/09/19 07:07:26;;;;;;;;;;;22.20;99.90;;;;;;5068254;28;19936;-54
2021/09/19 07:10:29;;;;;;;;;;;22.10;99.90;;;;;;5068362;28;19923;-53
2021/09/19 07:13:33;;;;;;;;;;;23.10;99.90;;;;;;5069166;28;19920;-53
2021/09/19 07:16:38;;;;;;;;;;;23.60;99.90;;;;;;5068365;28;19927;-53
2021/09/19 07:19:42;;;;;;;;;;;25.20;99.90;;;;;;5068475;28;19919;-54
2021/09/19 07:22:46;;;;;;;;;;;27.20;99.90;;;;;;5069086;28;19920;-54
2021/09/19 07:25:50;;;;;;;;;;;28.90;99.50;;;;;;5068126;28;20019;-52
2021/09/19 07:28:54;;;;;;;;;;;27.40;99.10;;;;;;5068111;28;19919;-54
2021/09/19 07:32:01;;;;;;;;;;;27.20;99.50;;;;;;5068760;28;19927;-54
2021/09/19 07:35:05;;;;;;;;;;;27.50;99.00;;;;;;5068928;28;19928;-53
2021/09/19 07:38:09;;;;;;;;;;;25.50;99.90;;;;;;5067928;28;20406;-53
2021/09/19 07:41:13;;;;;;;;;;;24.70;99.90;;;;;;5070390;28;19919;-54
2021/09/19 07:44:16;;;;;;;;;;;24.10;99.90;;;;;;5072807;28;19927;-55
2021/09/19 07:47:21;;;;;;;;;;;24.10;99.90;;;;;;5071485;28;19920;-59
2021/09/19 07:50:26;;;;;;;;;;;24.20;99.90;;;;;;5072498;28;19919;-53
2021/09/19 07:53:30;;;;;;;;;;;24.20;99.90;;;;;;5060318;28;19924;-53
2021/09/19 07:56:34;;;;;;;;;;;24.00;99.90;;;;;;5071314;28;19939;-53
2021/09/19 07:59:38;;;;;;;;;;;24.10;99.90;;;;;;5071698;28;19919;-53
2021/09/19 08:02:42;;;;;;;;;;;24.10;99.90;;;;;;5072110;28;19931;-52
2021/09/19 08:05:46;;;;;;;;;;;23.90;99.90;;;;;;5071058;28;19924;-52
2021/09/19 08:08:50;;;;;;;;;;;23.50;99.90;;;;;;5071091;28;19920;-52
2021/09/19 08:11:54;;;;;;;;;;;23.40;99.90;;;;;;5072156;28;20390;-53
2021/09/19 08:14:58;;;;;;;;;;;23.20;99.90;;;;;;5071335;28;19924;-52
2021/09/19 08:18:02;;;;;;;;;;;22.70;99.90;;;;;;5071131;28;19919;-53
2021/09/19 08:21:06;;;;;;;;;;;22.40;99.90;;;;;;5071761;28;19919;-55
2021/09/19 08:24:11;;;;;;;;;;;21.80;99.90;;;;;;5058095;28;19939;-51
2021/09/19 08:27:15;;;;;;;;;;;20.90;99.90;;;;;;5070499;28;19916;-53
2021/09/19 08:30:19;;;;;;;;;;;20.40;99.90;;;;;;5071480;28;19927;-59
2021/09/19 08:33:27;;;;;;;;;;;20.50;99.90;;;;;;5072346;28;19923;-53
2021/09/19 08:36:31;;;;;;;;;;;20.40;99.90;;;;;;5069974;28;19939;-54
2021/09/19 08:39:34;;;;;;;;;;;20.50;99.90;;;;;;5071363;28;19927;-54
2021/09/19 08:42:39;;;;;;;;;;;20.60;99.90;;;;;;5071542;28;19919;-52
2021/09/19 08:45:47;;;;;;;;;;;20.80;99.90;;;;;;5070282;28;19992;-57
2021/09/19 08:48:52;;;;;;;;;;;20.90;99.90;;;;;;5071164;28;19920;-52
2021/09/19 08:51:55;;;;;;;;;;;21.00;99.90;;;;;;5071580;28;19920;-52
2021/09/19 08:55:00;;;;;;;;;;;21.10;99.90;;;;;;5070561;28;19935;-52
2021/09/19 08:58:04;;;;;;;;;;;21.20;99.90;;;;;;5058157;28;20033;-52
2021/09/19 09:01:07;;;;;;;;;;;21.20;99.90;;;;;;5058975;28;19919;-52
2021/09/19 09:04:20;;;;;;;;;;;21.40;99.90;;;;;;5070805;28;19924;-52
2021/09/19 09:07:25;;;;;;;;;;;21.60;99.90;;;;;;5069921;28;19923;-55
2021/09/19 09:10:40;;;;;;;;;;;21.70;99.90;;;;;;5071460;28;20401;-53
2021/09/19 09:13:44;;;;;;;;;;;22.00;99.90;;;;;;5071311;28;19923;-53
2021/09/19 09:16:49;;;;;;;;;;;22.40;99.90;;;;;;5057624;28;20178;-53
2021/09/19 09:19:54;;;;;;;;;;;22.70;99.90;;;;;;5070742;28;19927;-56
2021/09/19 09:22:58;;;;;;;;;;;23.10;99.90;;;;;;5070604;28;19919;-52
2021/09/19 09:26:09;;;;;;;;;;;23.30;99.90;;;;;;5069338;28;20206;-52
2021/09/19 09:29:13;;;;;;;;;;;23.60;99.90;;;;;;5045709;28;19920;-55
2021/09/19 09:32:18;;;;;;;;;;;23.70;99.90;;;;;;5070523;28;19939;-53
2021/09/19 09:35:42;;;;;;;;;;;23.80;99.90;;;;;;5069348;28;19926;-52
2021/09/19 09:38:46;;;;;;;;;;;23.80;99.90;;;;;;5047685;28;19953;-52
2021/09/19 09:41:51;;;;;;;;;;;23.00;99.90;;;;;;5070407;28;20306;-53
2021/09/19 09:44:55;;;;;;;;;;;22.40;99.90;;;;;;5069796;28;19923;-53
2021/09/19 09:47:59;;;;;;;;;;;22.20;99.90;;;;;;5056696;28;19920;-57
2021/09/19 09:51:04;;;;;;;;;;;22.30;99.90;;;;;;5069545;28;19920;-56
2021/09/19 09:54:12;;;;;;;;;;;22.30;99.90;;;;;;5070124;28;19924;-53
2021/09/19 09:57:22;;;;;;;;;;;22.40;99.90;;;;;;5068904;28;19923;-52
2021/09/19 10:00:26;;;;;;;;;;;22.70;99.90;;;;;;5069079;28;19919;-52
2021/09/19 10:03:30;;;;;;;;;;;23.20;99.90;;;;;;5069755;28;19923;-57
2021/09/19 10:06:35;;;;;;;;;;;23.70;99.90;;;;;;5068721;28;19920;-53
2021/09/19 10:09:42;;;;;;;;;;;23.90;99.90;;;;;;5068970;28;20198;-56
2021/09/19 10:12:47;;;;;;;;;;;24.10;99.90;;;;;;5057538;28;19927;-53
2021/09/19 10:15:51;;;;;;;;;;;24.10;99.90;;;;;;5069088;28;19923;-52
2021/09/19 10:18:57;;;;;;;;;;;23.90;99.90;;;;;;5068552;28;19974;-56
2021/09/19 10:22:01;;;;;;;;;;;23.70;99.90;;;;;;5070242;28;19919;-52
2021/09/19 10:25:06;;;;;;;;;;;23.50;99.90;;;;;;5068812;28;19923;-52
2021/09/19 10:28:15;;;;;;;;;;;23.60;99.90;;;;;;5068448;28;19936;-53
2021/09/19 10:31:21;;;;;;;;;;;23.80;99.90;;;;;;5069216;28;20291;-53
2021/09/19 10:34:26;;;;;;;;;;;24.10;99.90;;;;;;5069731;28;20318;-56
2021/09/19 10:37:49;;;;;;;;;;;24.20;99.90;;;;;;5055716;28;19932;-56
2021/09/19 10:41:11;;;;;;;;;;;24.30;99.90;;;;;;5068262;28;19920;-56
2021/09/19 10:44:15;;;;;;;;;;;24.70;99.90;;;;;;5069838;28;19923;-54
2021/09/19 10:47:22;;;;;;;;;;;25.10;99.90;;;;;;5068839;28;20413;-54
2021/09/19 10:50:31;;;;;;;;;;;25.40;99.90;;;;;;5068635;28;19939;-57
2021/09/19 10:53:46;;;;;;;;;;;25.40;99.90;;;;;;5069994;28;20406;-55
2021/09/19 10:56:56;;;;;;;;;;;25.40;99.90;;;;;;5069881;28;19927;-54
2021/09/19 11:00:14;;;;;;;;;;;25.10;99.90;;;;;;5068915;28;19919;-56
2021/09/19 11:03:28;;;;;;;;;;;25.20;99.90;;;;;;5068854;28;19919;-53
2021/09/19 11:06:36;;;;;;;;;;;25.70;99.90;;;;;;5069967;28;19975;-52
2021/09/19 11:09:40;;;;;;;;;;;25.80;99.90;;;;;;5069190;28;19923;-59
2021/09/19 11:12:50;;;;;;;;;;;25.80;99.90;;;;;;5068142;28;19939;-56
2021/09/19 11:16:01;;;;;;;;;;;25.30;99.90;;;;;;5071299;28;19947;-53
2021/09/19 11:19:06;;;;;;;;;;;25.30;99.90;;;;;;5073153;28;19924;-55
2021/09/19 11:22:21;;;;;;;;;;;26.50;99.90;;;;;;5072077;28;20294;-53
2021/09/19 11:25:25;;;;;;;;;;;26.00;99.90;;;;;;5072507;28;19939;-54
2021/09/19 11:28:31;;;;;;;;;;;26.20;99.90;;;;;;5072680;28;19924;-53
2021/09/19 11:31:36;;;;;;;;;;;25.90;99.90;;;;;;5071531;28;20446;-53
2021/09/19 11:34:40;;;;;;;;;;;25.80;99.90;;;;;;5071655;28;19939;-54
2021/09/19 11:37:53;;;;;;;;;;;25.80;99.90;;;;;;5072567;28;19922;-54
2021/09/19 11:40:58;;;;;;;;;;;26.00;99.90;;;;;;5072059;28;19935;-54
2021/09/19 11:44:03;;;;;;;;;;;26.20;99.90;;;;;;5059079;28;19919;-59
2021/09/19 11:47:08;;;;;;;;;;;26.20;99.90;;;;;;5072924;28;19928;-54
2021/09/19 11:50:11;;;;;;;;;;;25.30;99.90;;;;;;5071900;28;20425;-53
2021/09/19 11:53:15;;;;;;;;;;;25.90;99.90;;;;;;5071682;28;19920;-55
2021/09/19 11:56:20;;;;;;;;;;;25.80;99.90;;;;;;5072299;28;20033;-57
2021/09/19 11:59:25;;;;;;;;;;;26.80;99.90;;;;;;5048267;28;19919;-58
2021/09/19 12:02:30;;;;;;;;;;;27.20;99.90;;;;;;5071451;28;20314;-57
2021/09/19 12:05:34;;;;;;;;;;;27.00;99.90;;;;;;5071903;28;20429;-53
2021/09/19 12:08:41;;;;;;;;;;;26.10;99.90;;;;;;5072561;28;20390;-54
2021/09/19 12:11:46;;;;;;;;;;;26.40;99.90;;;;;;5070878;28;19935;-54
2021/09/19 12:14:52;;;;;;;;;;;26.10;99.90;;;;;;5058862;28;20122;-56
2021/09/19 12:18:03;;;;;;;;;;;28.10;99.90;;;;;;5072479;28;19920;-54
2021/09/19 12:21:07;;;;;;;;;;;29.60;99.90;;;;;;5058621;28;19920;-58
2021/09/19 12:24:11;;;;;;;;;;;28.00;99.90;;;;;;5071202;28;20176;-55
2021/09/19 12:27:20;;;;;;;;;;;28.70;99.90;;;;;;5071902;28;19920;-54
2021/09/19 12:30:24;;;;;;;;;;;28.40;99.90;;;;;;5070995;28;19925;-54
2021/09/19 12:33:28;;;;;;;;;;;29.90;98.90;;;;;;5070875;28;20286;-56
2021/09/19 12:36:39;;;;;;;;;;;28.50;99.30;;;;;;5059886;28;19927;-54
2021/09/19 12:39:44;;;;;;;;;;;27.70;99.90;;;;;;5071366;28;19923;-53
2021/09/19 12:42:49;;;;;;;;;;;31.50;96.60;;;;;;5070395;28;19951;-54
2021/09/19 12:45:53;;;;;;;;;;;33.00;94.30;;;;;;5071310;28;19919;-56
2021/09/19 12:49:02;;;;;;;;;;;32.40;93.10;;;;;;5071485;28;19923;-54
2021/09/19 12:52:07;;;;;;;;;;;31.50;92.70;;;;;;5057989;28;19923;-56
2021/09/19 12:55:15;;;;;;;;;;;31.20;93.20;;;;;;5057803;28;19924;-57
2021/09/19 12:58:19;;;;;;;;;;;30.90;93.70;;;;;;5051365;28;19978;-53
2021/09/19 13:01:23;;;;;;;;;;;31.70;92.90;;;;;;5056632;28;19931;-57
2021/09/19 13:04:27;;;;;;;;;;;30.90;91.30;;;;;;5070298;28;19928;-55
2021/09/19 13:07:31;;;;;;;;;;;31.80;91.70;;;;;;5071543;28;19939;-57
2021/09/19 13:10:35;;;;;;;;;;;33.00;90.20;;;;;;5058197;28;19923;-52
2021/09/19 13:13:39;;;;;;;;;;;33.70;89.80;;;;;;5057566;28;19919;-54
2021/09/19 13:16:43;;;;;;;;;;;32.70;88.40;;;;;;5071574;28;19923;-57
2021/09/19 13:19:47;;;;;;;;;;;29.80;91.90;;;;;;5070494;28;19939;-57
2021/09/19 13:22:51;;;;;;;;;;;28.20;93.30;;;;;;5069668;28;19920;-54
2021/09/19 13:25:55;;;;;;;;;;;27.20;95.30;;;;;;5071394;28;19920;-56
2021/09/19 13:28:59;;;;;;;;;;;26.60;95.80;;;;;;5070588;28;19936;-54
2021/09/19 13:32:03;;;;;;;;;;;26.70;97.20;;;;;;5069327;28;19920;-53
2021/09/19 13:35:08;;;;;;;;;;;26.20;99.40;;;;;;5058027;28;19939;-56
2021/09/19 13:38:12;;;;;;;;;;;23.60;99.90;;;;;;5070472;28;19923;-55
2021/09/19 13:41:16;;;;;;;;;;;23.40;99.90;;;;;;5069528;28;19920;-52
2021/09/19 13:44:20;;;;;;;;;;;22.90;99.90;;;;;;5070304;28;19923;-52
2021/09/19 13:47:24;;;;;;;;;;;22.60;99.90;;;;;;5050765;28;20434;-51
2021/09/19 13:50:28;;;;;;;;;;;22.20;99.90;;;;;;5066071;28;19935;-52
2021/09/19 13:53:32;;;;;;;;;;;22.10;99.90;;;;;;5069628;28;19920;-53
2021/09/19 13:56:37;;;;;;;;;;;22.20;99.90;;;;;;5070226;28;20295;-53
2021/09/19 14:04:29;;;;;;;;;;;23.00;99.90;;;;;;5069826;28;19935;-54
2021/09/19 14:07:33;;;;;;;;;;;23.80;99.90;;;;;;5068738;28;19919;-58
2021/09/19 14:10:38;;;;;;;;;;;24.00;99.90;;;;;;5069695;28;19935;-52
2021/09/19 14:13:42;;;;;;;;;;;23.60;99.90;;;;;;5069541;28;19919;-55
2021/09/19 14:16:47;;;;;;;;;;;23.20;99.90;;;;;;5068751;28;19927;-52
2021/09/19 14:19:51;;;;;;;;;;;23.00;99.90;;;;;;5069251;28;20291;-53
2021/09/19 14:22:55;;;;;;;;;;;23.00;99.90;;;;;;5069606;28;19919;-55
2021/09/19 14:25:59;;;;;;;;;;;23.20;99.90;;;;;;5068775;28;19924;-52
2021/09/19 14:29:04;;;;;;;;;;;23.50;99.90;;;;;;5069335;28;19928;-55
2021/09/19 14:32:09;;;;;;;;;;;23.50;99.90;;;;;;5069195;28;19920;-57
2021/09/19 14:35:14;;;;;;;;;;;23.40;99.90;;;;;;5068658;28;20018;-55
2021/09/19 14:38:18;;;;;;;;;;;23.10;99.90;;;;;;5056133;28;19927;-52
2021/09/19 14:41:22;;;;;;;;;;;22.90;99.90;;;;;;5069256;28;20386;-51
2021/09/19 14:44:27;;;;;;;;;;;23.10;99.90;;;;;;5068454;28;20397;-52
2021/09/19 14:47:31;;;;;;;;;;;23.30;99.90;;;;;;5068089;28;19943;-53
2021/09/19 14:50:35;;;;;;;;;;;23.50;99.90;;;;;;5072123;28;19920;-53
2021/09/19 14:53:39;;;;;;;;;;;24.00;99.90;;;;;;5060381;28;19923;-55
2021/09/19 14:56:44;;;;;;;;;;;24.40;99.90;;;;;;5072275;28;19939;-54
2021/09/19 14:59:48;;;;;;;;;;;24.90;99.90;;;;;;5073485;28;19919;-52
2021/09/19 15:02:52;;;;;;;;;;;25.00;99.90;;;;;;5072734;28;19924;-52
2021/09/19 15:05:56;;;;;;;;;;;24.90;99.90;;;;;;5072336;28;19919;-53
2021/09/19 15:09:01;;;;;;;;;;;24.50;99.90;;;;;;5073424;28;20394;-52
2021/09/19 15:12:06;;;;;;;;;;;24.30;99.90;;;;;;5072797;28;19966;-53
2021/09/19 15:15:11;;;;;;;;;;;23.80;99.90;;;;;;5072419;28;19923;-52
2021/09/19 15:18:15;;;;;;;;;;;23.70;99.90;;;;;;5072786;28;19935;-51
2021/09/19 15:21:21;;;;;;;;;;;23.50;99.90;;;;;;5073074;28;20410;-52
2021/09/19 15:24:27;;;;;;;;;;;23.00;99.90;;;;;;5071904;28;19953;-54
2021/09/19 15:27:31;;;;;;;;;;;22.70;99.90;;;;;;5072252;28;19920;-54
2021/09/19 15:30:35;;;;;;;;;;;22.60;99.90;;;;;;5072897;28;20290;-51
2021/09/19 15:33:40;;;;;;;;;;;22.60;99.90;;;;;;5071727;28;19931;-52
2021/09/19 15:36:43;;;;;;;;;;;22.60;99.90;;;;;;5059434;28;19923;-52
2021/09/19 15:39:47;;;;;;;;;;;22.70;99.90;;;;;;5073000;28;19919;-51
2021/09/19 15:42:53;;;;;;;;;;;22.90;99.90;;;;;;5071660;28;19923;-53
2021/09/19 15:45:59;;;;;;;;;;;22.80;99.90;;;;;;5071611;28;19923;-56
2021/09/19 15:49:04;;;;;;;;;;;22.80;99.90;;;;;;5072825;28;20417;-52
2021/09/19 15:52:08;;;;;;;;;;;22.70;99.90;;;;;;5071483;28;20327;-53
2021/09/19 15:55:12;;;;;;;;;;;22.70;99.90;;;;;;5071255;28;20315;-54
2021/09/19 15:58:16;;;;;;;;;;;22.60;99.90;;;;;;5066495;28;19935;-51
2021/09/19 16:01:20;;;;;;;;;;;22.60;99.90;;;;;;5051265;28;19936;-52
2021/09/19 16:04:24;;;;;;;;;;;22.60;99.90;;;;;;5064383;28;19925;-54
2021/09/19 16:07:28;;;;;;;;;;;22.70;99.90;;;;;;5072229;28;19920;-54
2021/09/19 16:10:32;;;;;;;;;;;22.70;99.90;;;;;;5072456;28;19920;-51
2021/09/19 16:13:36;;;;;;;;;;;22.60;99.90;;;;;;5070851;28;19919;-52
2021/09/19 16:16:39;;;;;;;;;;;22.60;99.90;;;;;;5071789;28;19931;-52
2021/09/19 16:19:44;;;;;;;;;;;22.60;99.90;;;;;;5072758;28;19920;-58
2021/09/19 16:22:48;;;;;;;;;;;22.50;99.90;;;;;;5058217;28;19935;-52
2021/09/19 16:25:52;;;;;;;;;;;22.40;99.90;;;;;;5071302;28;19924;-55
2021/09/19 16:28:56;;;;;;;;;;;22.30;99.90;;;;;;5071987;28;19919;-57
2021/09/19 16:32:00;;;;;;;;;;;22.30;99.90;;;;;;5070377;28;19924;-53
2021/09/19 16:35:04;;;;;;;;;;;22.30;99.90;;;;;;5070893;28;20318;-52
2021/09/19 16:38:08;;;;;;;;;;;22.10;99.90;;;;;;5072116;28;19987;-51
2021/09/19 16:41:12;;;;;;;;;;;21.80;99.90;;;;;;5071489;28;19979;-52
2021/09/19 16:44:16;;;;;;;;;;;21.50;99.90;;;;;;5058698;28;19982;-54
2021/09/19 16:47:20;;;;;;;;;;;21.30;99.90;;;;;;5072732;28;20286;-54
2021/09/19 16:50:24;;;;;;;;;;;21.10;99.90;;;;;;5071172;28;19987;-55
2021/09/19 16:53:28;;;;;;;;;;;21.10;99.90;;;;;;5070382;28;19923;-53
2021/09/19 16:56:32;;;;;;;;;;;21.00;99.90;;;;;;5071745;28;19923;-50
2021/09/19 16:59:36;;;;;;;;;;;20.90;99.90;;;;;;5071685;28;19920;-53
2021/09/19 17:02:40;;;;;;;;;;;20.90;99.90;;;;;;5069842;28;19919;-52
2021/09/19 17:05:45;;;;;;;;;;;20.80;99.90;;;;;;5070943;28;20294;-54
2021/09/19 17:08:50;;;;;;;;;;;20.70;99.90;;;;;;5071657;28;19935;-56
2021/09/19 17:11:54;;;;;;;;;;;20.70;99.90;;;;;;5069877;28;20385;-52
2021/09/19 17:14:58;;;;;;;;;;;20.60;99.90;;;;;;5070167;28;19920;-55
2021/09/19 17:18:02;;;;;;;;;;;20.50;99.90;;;;;;5071583;28;20299;-53
2021/09/19 17:21:06;;;;;;;;;;;20.30;99.90;;;;;;5057417;28;19920;-53
2021/09/19 17:24:10;;;;;;;;;;;20.30;99.90;;;;;;5069737;28;19923;-55
2021/09/19 17:27:14;;;;;;;;;;;20.10;99.90;;;;;;5071226;28;19920;-53
2021/09/19 17:30:19;;;;;;;;;;;20.00;99.90;;;;;;5070413;28;20263;-54
2021/09/19 17:33:23;;;;;;;;;;;19.90;99.90;;;;;;5057071;28;19943;-55
2021/09/19 17:36:27;;;;;;;;;;;19.90;99.90;;;;;;5070908;28;19923;-52
2021/09/19 17:39:30;;;;;;;;;;;19.80;99.90;;;;;;5058100;28;19924;-54
2021/09/19 17:42:35;;;;;;;;;;;19.70;99.90;;;;;;5069140;28;20306;-55
2021/09/19 17:45:39;;;;;;;;;;;19.60;99.90;;;;;;5070858;28;19923;-52
2021/09/19 17:48:43;;;;;;;;;;;19.60;99.90;;;;;;5069999;28;19935;-53
2021/09/19 17:51:47;;;;;;;;;;;19.50;99.90;;;;;;5069458;28;19924;-57
2021/09/19 17:54:51;;;;;;;;;;;19.40;99.90;;;;;;5069780;28;19924;-53
2021/09/19 17:57:55;;;;;;;;;;;19.30;99.90;;;;;;5051001;28;19924;-52